sensor_id;sensor_type;location;lat;lon;timestamp;pressure;altitude;pressure_sealevel;temperature;humidity
4528;BME280;62320;51.520;6.818;2023-03-19T00:05:33;100688.22;;;11.19;94.89
4528;BME280;62320;51.520;6.818;2023-03-19T00:15:35;100697.75;;;11.03;92.88
4528;BME280;62320;51.520;6.818;2023-03-19T00:25:36;100701.19;;;11.02;94.54
4528;BME280;62320;51.520;6.818;2023-03-19T00:35:38;100702.06;;;11.06;97.12
4528;BME280;62320;51.520;6.818;2023-03-19T00:45:40;100696.88;;;11.00;94.60
4528;BME280;62320;51.520;6.818;2023-03-19T00:55:42;100677.91;;;11.02;93.71
4528;BME280;62320;51.520;6.818;2023-03-19T01:05:47;100697.75;;;10.97;95.95
4528;BME280;62320;51.520;6.818;2023-03-19T01:15:51;100676.22;;;10.91;97.98
4528;BME280;62320;51.520;6.818;2023-03-19T01:25:52;100694.38;;;10.83;97.76
4528;BME280;62320;51.520;6.818;2023-03-19T01:35:54;100698.72;;;10.72;98.64
4528;BME280;62320;51.520;6.818;2023-03-19T01:45:58;100681.47;;;10.63;98.31
4528;BME280;62320;51.520;6.818;2023-03-19T01:56:22;100672.88;;;10.55;94.75
4528;BME280;62320;51.520;6.818;2023-03-19T02:06:24;100681.47;;;10.59;97.31
4528;BME280;62320;51.520;6.818;2023-03-19T02:16:25;100677.19;;;10.58;98.75
4528;BME280;62320;51.520;6.818;2023-03-19T02:26:29;100672.84;;;10.60;98.85
4528;BME280;62320;51.520;6.818;2023-03-19T02:36:43;100659.06;;;10.62;98.39
4528;BME280;62320;51.520;6.818;2023-03-19T02:46:46;100672.84;;;10.57;98.20
4528;BME280;62320;51.520;6.818;2023-03-19T02:56:48;100672.84;;;10.60;96.86
4528;BME280;62320;51.520;6.818;2023-03-19T03:06:50;100670.28;;;10.60;96.96
4528;BME280;62320;51.520;6.818;2023-03-19T03:16:52;100658.19;;;10.68;98.44
4528;BME280;62320;51.520;6.818;2023-03-19T03:26:53;100675.44;;;10.69;98.31
4528;BME280;62320;51.520;6.818;2023-03-19T03:36:55;100681.44;;;10.72;97.73
4528;BME280;62320;51.520;6.818;2023-03-19T03:46:58;100694.41;;;10.66;97.44
4528;BME280;62320;51.520;6.818;2023-03-19T03:56:59;100696.13;;;10.67;97.90
4528;BME280;62320;51.520;6.818;2023-03-19T04:07:04;100703.00;;;10.61;96.46
4528;BME280;62320;51.520;6.818;2023-03-19T04:17:05;100706.44;;;10.66;98.20
4528;BME280;62320;51.520;6.818;2023-03-19T04:27:07;100709.00;;;10.84;96.94
4528;BME280;62320;51.520;6.818;2023-03-19T04:37:08;100721.09;;;10.90;95.87
4528;BME280;62320;51.520;6.818;2023-03-19T04:47:11;100732.28;;;10.96;96.86
4528;BME280;62320;51.520;6.818;2023-03-19T04:57:12;100727.09;;;10.98;96.12
4528;BME280;62320;51.520;6.818;2023-03-19T05:07:13;100727.94;;;10.98;96.15
4528;BME280;62320;51.520;6.818;2023-03-19T05:17:15;100736.53;;;11.06;96.87
4528;BME280;62320;51.520;6.818;2023-03-19T05:27:17;100746.03;;;11.04;96.10
4528;BME280;62320;51.520;6.818;2023-03-19T05:37:18;100738.28;;;11.03;96.12
4528;BME280;62320;51.520;6.818;2023-03-19T05:47:20;100758.97;;;11.12;96.94
4528;BME280;62320;51.520;6.818;2023-03-19T05:57:21;100759.84;;;11.06;100.00
4528;BME280;62320;51.520;6.818;2023-03-19T06:07:23;100777.09;;;11.00;98.36
4528;BME280;62320;51.520;6.818;2023-03-19T06:17:24;100774.50;;;11.00;99.37
4528;BME280;62320;51.520;6.818;2023-03-19T06:27:25;100788.31;;;11.08;100.00
4528;BME280;62320;51.520;6.818;2023-03-19T06:37:27;100792.63;;;11.10;100.00
4528;BME280;62320;51.520;6.818;2023-03-19T06:47:29;100808.97;;;11.11;100.00
4528;BME280;62320;51.520;6.818;2023-03-19T06:57:31;100812.44;;;11.19;100.00
4528;BME280;62320;51.520;6.818;2023-03-19T07:07:32;100820.22;;;11.19;100.00
4528;BME280;62320;51.520;6.818;2023-03-19T07:17:34;100827.06;;;11.29;100.00
4528;BME280;62320;51.520;6.818;2023-03-19T07:27:35;100842.59;;;11.32;100.00
4528;BME280;62320;51.520;6.818;2023-03-19T07:37:37;100842.59;;;11.32;100.00
4528;BME280;62320;51.520;6.818;2023-03-19T07:47:38;100852.06;;;11.48;100.00
4528;BME280;62320;51.520;6.818;2023-03-19T07:57:40;100855.53;;;11.56;100.00
4528;BME280;62320;51.520;6.818;2023-03-19T08:07:41;100853.78;;;11.67;100.00
4528;BME280;62320;51.520;6.818;2023-03-19T08:17:43;100862.31;;;11.90;100.00
4528;BME280;62320;51.520;6.818;2023-03-19T08:27:46;100876.06;;;12.09;100.00
4528;BME280;62320;51.520;6.818;2023-03-19T08:37:47;100886.38;;;12.24;100.00
4528;BME280;62320;51.520;6.818;2023-03-19T08:47:48;100888.06;;;12.33;100.00
4528;BME280;62320;51.520;6.818;2023-03-19T08:57:50;100892.28;;;12.47;100.00
4528;BME280;62320;51.520;6.818;2023-03-19T09:07:52;100899.03;;;12.75;100.00
4528;BME280;62320;51.520;6.818;2023-03-19T09:17:53;100898.13;;;12.82;99.09
4528;BME280;62320;51.520;6.818;2023-03-19T09:27:55;100901.41;;;13.09;99.01
4528;BME280;62320;51.520;6.818;2023-03-19T09:37:58;100903.88;;;13.25;99.05
4528;BME280;62320;51.520;6.818;2023-03-19T09:48:11;100917.53;;;13.47;97.88
4528;BME280;62320;51.520;6.818;2023-03-19T09:58:16;100921.78;;;13.54;96.94
4528;BME280;62320;51.520;6.818;2023-03-19T10:08:34;100931.19;;;13.67;96.89
4528;BME280;62320;51.520;6.818;2023-03-19T10:18:47;100943.50;;;13.48;98.45
4528;BME280;62320;51.520;6.818;2023-03-19T10:39:00;100950.31;;;13.58;97.70
4528;BME280;62320;51.520;6.818;2023-03-19T10:49:11;100951.03;;;13.73;99.11
4528;BME280;62320;51.520;6.818;2023-03-19T11:09:37;100960.66;;;13.65;95.84
4528;BME280;62320;51.520;6.818;2023-03-19T11:19:41;100957.94;;;13.78;95.81
4528;BME280;62320;51.520;6.818;2023-03-19T11:29:43;100961.22;;;13.94;94.84
4528;BME280;62320;51.520;6.818;2023-03-19T11:39:57;100954.94;;;14.13;96.49
4528;BME280;62320;51.520;6.818;2023-03-19T11:50:12;100961.94;;;14.08;96.76
4528;BME280;62320;51.520;6.818;2023-03-19T12:21:04;100953.00;;;14.32;93.51
4528;BME280;62320;51.520;6.818;2023-03-19T12:41:25;100951.09;;;14.46;90.85
4528;BME280;62320;51.520;6.818;2023-03-19T12:51:38;100944.91;;;14.54;90.88
4528;BME280;62320;51.520;6.818;2023-03-19T13:02:08;100956.13;;;14.59;90.48
4528;BME280;62320;51.520;6.818;2023-03-19T13:12:17;100961.19;;;14.71;89.62
4528;BME280;62320;51.520;6.818;2023-03-19T13:22:25;100942.50;;;15.03;87.03
4528;BME280;62320;51.520;6.818;2023-03-19T13:32:50;100937.09;;;15.14;87.15
4528;BME280;62320;51.520;6.818;2023-03-19T13:42:55;100936.41;;;15.02;85.68
4528;BME280;62320;51.520;6.818;2023-03-19T13:53:21;100939.25;;;14.87;83.60
4528;BME280;62320;51.520;6.818;2023-03-19T14:03:29;100944.63;;;14.75;84.92
4528;BME280;62320;51.520;6.818;2023-03-19T14:13:41;100945.50;;;14.74;85.43
4528;BME280;62320;51.520;6.818;2023-03-19T14:23:52;100946.47;;;14.69;84.63
4528;BME280;62320;51.520;6.818;2023-03-19T14:54:45;100956.09;;;14.61;85.13
4528;BME280;62320;51.520;6.818;2023-03-19T15:04:49;100950.75;;;14.73;83.01
4528;BME280;62320;51.520;6.818;2023-03-19T15:25:17;100960.81;;;14.95;85.07
4528;BME280;62320;51.520;6.818;2023-03-19T15:35:22;100957.47;;;14.87;85.55
4528;BME280;62320;51.520;6.818;2023-03-19T15:45:25;100968.66;;;14.92;83.93
4528;BME280;62320;51.520;6.818;2023-03-19T15:55:28;100980.13;;;14.82;82.39
4528;BME280;62320;51.520;6.818;2023-03-19T16:05:30;100997.59;;;14.73;83.26
4528;BME280;62320;51.520;6.818;2023-03-19T16:15:42;100996.88;;;14.62;83.46
4528;BME280;62320;51.520;6.818;2023-03-19T16:25:45;101003.78;;;14.64;83.99
4528;BME280;62320;51.520;6.818;2023-03-19T16:35:50;101004.78;;;14.56;85.07
4528;BME280;62320;51.520;6.818;2023-03-19T16:46:03;101023.03;;;14.51;84.84
4528;BME280;62320;51.520;6.818;2023-03-19T16:56:09;101047.34;;;14.49;84.83
4528;BME280;62320;51.520;6.818;2023-03-19T17:06:13;101051.81;;;14.38;82.23
4528;BME280;62320;51.520;6.818;2023-03-19T17:16:16;101076.13;;;14.34;83.96
4528;BME280;62320;51.520;6.818;2023-03-19T17:26:23;101093.56;;;14.24;83.39
4528;BME280;62320;51.520;6.818;2023-03-19T17:36:26;101095.34;;;14.16;83.44
4528;BME280;62320;51.520;6.818;2023-03-19T17:46:27;101104.13;;;14.06;84.76
4528;BME280;62320;51.520;6.818;2023-03-19T17:56:29;101107.69;;;13.91;84.35
4528;BME280;62320;51.520;6.818;2023-03-19T18:06:33;101125.13;;;13.83;84.85
4528;BME280;62320;51.520;6.818;2023-03-19T18:16:35;101145.13;;;13.71;86.28
4528;BME280;62320;51.520;6.818;2023-03-19T18:26:37;101151.25;;;13.61;86.04
4528;BME280;62320;51.520;6.818;2023-03-19T18:36:39;101176.44;;;13.46;87.17
4528;BME280;62320;51.520;6.818;2023-03-19T18:46:40;101186.13;;;13.14;87.86
4528;BME280;62320;51.520;6.818;2023-03-19T18:56:43;101196.53;;;13.07;87.42
4528;BME280;62320;51.520;6.818;2023-03-19T19:06:45;101223.38;;;12.89;87.41
4528;BME280;62320;51.520;6.818;2023-03-19T19:16:49;101230.34;;;12.72;87.60
4528;BME280;62320;51.520;6.818;2023-03-19T19:26:51;101244.16;;;12.63;87.95
4528;BME280;62320;51.520;6.818;2023-03-19T19:36:54;101253.69;;;12.55;88.13
4528;BME280;62320;51.520;6.818;2023-03-19T19:47:00;101262.31;;;12.54;88.31
4528;BME280;62320;51.520;6.818;2023-03-19T19:57:02;101283.94;;;12.50;88.51
4528;BME280;62320;51.520;6.818;2023-03-19T20:07:03;101298.63;;;12.48;88.51
4528;BME280;62320;51.520;6.818;2023-03-19T20:17:05;101302.09;;;12.32;89.48
4528;BME280;62320;51.520;6.818;2023-03-19T20:27:25;101310.72;;;12.28;89.01
4528;BME280;62320;51.520;6.818;2023-03-19T20:37:30;101324.50;;;12.06;90.75
4528;BME280;62320;51.520;6.818;2023-03-19T20:47:32;101351.25;;;11.96;91.63
4528;BME280;62320;51.520;6.818;2023-03-19T20:57:34;101351.25;;;11.94;90.29
4528;BME280;62320;51.520;6.818;2023-03-19T21:07:35;101369.28;;;11.75;90.58
4528;BME280;62320;51.520;6.818;2023-03-19T21:17:37;101364.06;;;11.70;90.08
4528;BME280;62320;51.520;6.818;2023-03-19T21:27:39;101371.72;;;11.49;90.74
4528;BME280;62320;51.520;6.818;2023-03-19T21:37:45;101371.63;;;11.37;90.19
4528;BME280;62320;51.520;6.818;2023-03-19T21:47:47;101377.66;;;11.33;90.64
4528;BME280;62320;51.520;6.818;2023-03-19T21:57:49;101387.88;;;11.16;91.17
4528;BME280;62320;51.520;6.818;2023-03-19T22:07:52;101393.09;;;11.21;90.69
4528;BME280;62320;51.520;6.818;2023-03-19T22:17:54;101397.34;;;11.10;90.50
4528;BME280;62320;51.520;6.818;2023-03-19T22:27:55;101407.56;;;10.96;90.61
4528;BME280;62320;51.520;6.818;2023-03-19T22:37:57;101407.53;;;10.90;89.92
4528;BME280;62320;51.520;6.818;2023-03-19T22:47:58;101408.38;;;10.88;90.29
4528;BME280;62320;51.520;6.818;2023-03-19T22:58:00;101422.09;;;10.81;90.00
4528;BME280;62320;51.520;6.818;2023-03-19T23:08:04;101428.09;;;10.77;90.96
4528;BME280;62320;51.520;6.818;2023-03-19T23:18:18;101442.59;;;10.64;91.26
4528;BME280;62320;51.520;6.818;2023-03-19T23:28:29;101450.16;;;10.46;91.60
4528;BME280;62320;51.520;6.818;2023-03-19T23:38:32;101444.88;;;10.35;91.74
4528;BME280;62320;51.520;6.818;2023-03-19T23:48:35;101464.69;;;10.36;91.23
4528;BME280;62320;51.520;6.818;2023-03-19T23:58:40;101474.97;;;10.30;91.19
